createdAt,value
2023-05-09T00:00:31.329Z,13.62
2023-05-09T00:05:49.814Z,13.5
2023-05-09T00:11:08.254Z,13.38
2023-05-09T00:16:26.395Z,13.31
2023-05-09T00:21:46.403Z,13.19
2023-05-09T00:27:05.431Z,13.13
2023-05-09T00:32:23.591Z,13.06
2023-05-09T00:37:42.226Z,13
2023-05-09T00:43:02.434Z,12.94
2023-05-09T00:48:20.408Z,12.88
2023-05-09T00:53:38.703Z,12.81
2023-05-09T00:58:57.230Z,12.69
2023-05-09T01:04:17.154Z,12.63
2023-05-09T01:09:35.938Z,12.63
2023-05-09T01:14:54.850Z,12.69
2023-05-09T01:20:13.112Z,12.75
2023-05-09T01:25:31.242Z,12.63
2023-05-09T01:30:49.757Z,12.5
2023-05-09T01:36:07.799Z,12.37
2023-05-09T01:41:27.921Z,12.31
2023-05-09T01:46:46.275Z,12.13
2023-05-09T01:52:04.368Z,11.94
2023-05-09T01:57:22.613Z,11.94
2023-05-09T02:02:41.099Z,11.88
2023-05-09T02:07:59.160Z,11.81
2023-05-09T02:13:17.508Z,11.75
2023-05-09T02:18:35.956Z,11.69
2023-05-09T02:23:54.059Z,11.69
2023-05-09T02:29:12.293Z,11.63
2023-05-09T02:34:30.710Z,11.56
2023-05-09T02:39:48.994Z,11.5
2023-05-09T02:45:07.285Z,11.5
2023-05-09T02:50:26.029Z,11.75
2023-05-09T02:55:44.195Z,12
2023-05-09T03:01:02.553Z,11.88
2023-05-09T03:06:21.133Z,12.13
2023-05-09T03:11:39.371Z,12.06
2023-05-09T03:16:57.812Z,12.13
2023-05-09T03:22:16.231Z,12.06
2023-05-09T03:27:34.477Z,12
2023-05-09T03:32:52.746Z,12
2023-05-09T03:38:11.561Z,12
2023-05-09T03:43:29.796Z,12.06
2023-05-09T03:48:48.079Z,12.19
2023-05-09T03:54:06.767Z,12.25
2023-05-09T03:59:24.942Z,12.44
2023-05-09T04:04:43.251Z,12.56
2023-05-09T04:10:01.713Z,12.69
2023-05-09T04:15:20.187Z,12.81
2023-05-09T04:20:38.542Z,12.88
2023-05-09T04:25:56.895Z,13
2023-05-09T04:31:15.182Z,13.13
2023-05-09T04:36:33.486Z,13.25
2023-05-09T04:41:53.679Z,13.38
2023-05-09T04:47:12.235Z,13.5
2023-05-09T04:52:30.928Z,13.56
2023-05-09T04:57:49.389Z,13.62
2023-05-09T05:03:07.968Z,13.75
2023-05-09T05:08:26.342Z,13.75
2023-05-09T05:13:44.832Z,13.88
2023-05-09T05:19:02.903Z,13.94
2023-05-09T05:24:21.420Z,14
2023-05-09T05:29:40.279Z,14.19
2023-05-09T05:34:58.836Z,14.44
2023-05-09T05:40:17.378Z,14.56
2023-05-09T05:45:38.017Z,14.69
2023-05-09T05:50:56.910Z,14.81
2023-05-09T05:56:15.830Z,15.06
2023-05-09T06:06:32.940Z,15.31
2023-05-09T06:16:50.231Z,15.75
2023-05-09T06:22:08.639Z,16.12
2023-05-09T06:27:27.020Z,16.31
2023-05-09T06:32:45.375Z,16.5
2023-05-09T06:38:04.214Z,16.56
2023-05-09T06:43:22.459Z,17
2023-05-09T06:48:41.017Z,17.25
2023-05-09T06:53:59.196Z,16.62
2023-05-09T06:59:17.549Z,16.81
2023-05-09T07:04:36.169Z,17
2023-05-09T07:09:58.011Z,16.87
2023-05-09T07:15:12.996Z,17.19
2023-05-09T07:20:31.102Z,17.06
2023-05-09T07:25:49.591Z,17
2023-05-09T07:31:07.766Z,17.06
2023-05-09T07:36:25.982Z,17.31
2023-05-09T07:41:44.505Z,17.31
2023-05-09T07:47:02.761Z,17.12
2023-05-09T07:52:20.991Z,16.87
2023-05-09T07:57:39.546Z,18
2023-05-09T08:02:58.084Z,18.37
2023-05-09T08:08:16.313Z,17.81
2023-05-09T08:13:34.876Z,18.44
2023-05-09T08:18:53.228Z,18.69
2023-05-09T08:24:11.623Z,18.75
2023-05-09T08:29:30.632Z,19.44
2023-05-09T08:34:48.721Z,19.25
2023-05-09T08:40:06.936Z,18.69
2023-05-09T08:45:25.140Z,18.44
2023-05-09T08:50:43.469Z,18.19
2023-05-09T08:56:01.582Z,18.25
2023-05-09T09:01:20.226Z,18.69
2023-05-09T09:06:38.510Z,18.69
2023-05-09T09:11:57.349Z,19.06
2023-05-09T09:17:16.097Z,19.87
2023-05-09T09:22:34.892Z,20.06
2023-05-09T09:27:53.740Z,20.37
2023-05-09T09:33:12.224Z,20.62
2023-05-09T09:38:30.395Z,19.56
2023-05-09T09:43:48.352Z,19.37
2023-05-09T09:49:06.969Z,20.5
2023-05-09T09:54:25.712Z,20.37
2023-05-09T09:59:43.858Z,19.62
2023-05-09T10:05:02.350Z,20.25
2023-05-09T10:10:20.683Z,19.69
2023-05-09T10:15:49.751Z,20.06
2023-05-09T10:20:58.465Z,20.81
2023-05-09T10:26:17.241Z,21.31
2023-05-09T10:31:36.194Z,21.81
2023-05-09T10:36:54.786Z,21.37
2023-05-09T10:42:13.621Z,22
2023-05-09T10:47:32.634Z,22.19
2023-05-09T10:52:51.258Z,23
2023-05-09T10:58:09.274Z,22.31
2023-05-09T11:03:28.818Z,22.37
2023-05-09T11:08:48.852Z,22.13
2023-05-09T11:14:09.037Z,22.5
2023-05-09T11:19:27.230Z,21.62
2023-05-09T11:24:45.994Z,21.62
2023-05-09T11:30:03.888Z,21.37
2023-05-09T11:35:22.009Z,20.94
2023-05-09T11:40:40.824Z,21.37
2023-05-09T11:51:06.072Z,21.19
2023-05-09T11:56:24.580Z,21.06
2023-05-09T12:01:43.001Z,21.06
2023-05-09T12:07:01.392Z,20.88
2023-05-09T12:12:19.825Z,21.44
2023-05-09T12:17:39.929Z,21.31
2023-05-09T12:22:58.803Z,20.75
2023-05-09T12:28:18.799Z,20.69
2023-05-09T12:33:37.067Z,21.31
2023-05-09T12:38:55.593Z,21.62
2023-05-09T12:44:14.118Z,21.81
2023-05-09T12:49:34.379Z,21.75
2023-05-09T12:54:52.950Z,21.69
2023-05-09T13:00:11.888Z,21.69
2023-05-09T13:05:30.462Z,21.87
2023-05-09T13:10:49.019Z,21.87
2023-05-09T13:16:09.483Z,21.87
2023-05-09T13:21:26.059Z,21.94
2023-05-09T13:26:44.907Z,23.25
2023-05-09T13:32:03.508Z,23.38
2023-05-09T13:37:23.562Z,23.25
2023-05-09T13:42:42.211Z,22.81
2023-05-09T13:48:01.820Z,22.44
2023-05-09T13:53:20.283Z,22.75
2023-05-09T13:58:38.860Z,22.31
2023-05-09T14:03:57.820Z,22.19
2023-05-09T14:09:15.759Z,21.81
2023-05-09T14:14:34.171Z,21.37
2023-05-09T14:19:52.429Z,21.5
2023-05-09T14:25:10.890Z,21.37
2023-05-09T14:30:29.420Z,21.06
2023-05-09T14:35:48.192Z,21
2023-05-09T14:41:06.733Z,21.25
2023-05-09T14:46:25.421Z,21.19
2023-05-09T14:51:43.817Z,21.06
2023-05-09T14:57:02.144Z,20.62
2023-05-09T15:02:20.499Z,20.62
2023-05-09T15:07:39.363Z,20.37
2023-05-09T15:12:57.802Z,20.31
2023-05-09T15:18:16.072Z,20.31
2023-05-09T15:23:34.897Z,20.31
2023-05-09T15:28:53.239Z,20.19
2023-05-09T15:34:11.894Z,19.94
2023-05-09T15:39:30.221Z,20.06
2023-05-09T15:44:48.696Z,19.94
2023-05-09T15:50:07.501Z,20
2023-05-09T15:55:26.847Z,20.06
2023-05-09T16:00:44.303Z,19.87
2023-05-09T16:06:02.886Z,19.94
2023-05-09T16:11:21.664Z,19.94
2023-05-09T16:16:40.414Z,19.81
2023-05-09T16:21:58.569Z,19.81
2023-05-09T16:27:17.324Z,19.62
2023-05-09T16:32:35.411Z,19.75
2023-05-09T16:37:53.610Z,19.5
2023-05-09T16:43:12.404Z,19.62
2023-05-09T16:48:30.819Z,19.37
2023-05-09T16:53:52.333Z,19.31
2023-05-09T16:59:11.165Z,19.25
2023-05-09T17:04:29.727Z,19.12
2023-05-09T17:09:48.260Z,19.19
2023-05-09T17:15:06.559Z,19
2023-05-09T17:20:24.987Z,18.87
2023-05-09T17:25:43.191Z,18.75
2023-05-09T17:31:01.785Z,18.62
2023-05-09T17:36:20.003Z,18.56
2023-05-09T17:41:38.333Z,18.44
2023-05-09T17:46:57.011Z,18.44
2023-05-09T17:52:15.364Z,18.19
2023-05-09T17:57:33.816Z,17.87
2023-05-09T18:02:52.560Z,17.75
2023-05-09T18:08:10.669Z,17.56
2023-05-09T18:13:29.209Z,17.44
2023-05-09T18:18:48.080Z,16.19
2023-05-09T18:24:06.454Z,15.19
2023-05-09T18:29:24.564Z,15.13
2023-05-09T18:34:42.899Z,15.13
2023-05-09T18:45:05.485Z,15.06
2023-05-09T18:50:24.209Z,15.19
2023-05-09T18:55:42.869Z,15.19
2023-05-09T19:06:08.464Z,15.06
2023-05-09T19:11:28.003Z,14.94
2023-05-09T19:16:46.788Z,14.94
2023-05-09T19:22:05.464Z,15
2023-05-09T19:27:23.611Z,15.13
2023-05-09T19:32:42.172Z,15
2023-05-09T19:38:00.341Z,14.87
2023-05-09T19:43:18.607Z,14.81
2023-05-09T19:48:37.329Z,14.75
2023-05-09T19:53:56.027Z,14.69
2023-05-09T19:59:14.669Z,14.69
2023-05-09T20:04:33.620Z,14.63
2023-05-09T20:09:52.085Z,14.56
2023-05-09T20:15:10.256Z,14.56
2023-05-09T20:20:30.235Z,14.56
2023-05-09T20:25:49.040Z,14.56
2023-05-09T20:36:14.641Z,14.5
2023-05-09T20:41:33.330Z,14.44
2023-05-09T20:46:51.680Z,14.44
2023-05-09T20:52:10.271Z,14.38
2023-05-09T20:57:28.882Z,14.38
2023-05-09T21:02:47.325Z,14.44
2023-05-09T21:08:05.856Z,14.38
2023-05-09T21:13:24.273Z,14.31
2023-05-09T21:18:42.674Z,14.25
2023-05-09T21:24:01.427Z,14.19
2023-05-09T21:29:20.560Z,14.13
2023-05-09T21:34:38.905Z,14.13
2023-05-09T21:39:57.613Z,14.19
2023-05-09T21:45:16.039Z,14.19
2023-05-09T21:50:34.669Z,14.19
2023-05-09T21:55:53.341Z,14.19
2023-05-09T22:01:12.026Z,14.13
2023-05-09T22:06:32.186Z,14.06
2023-05-09T22:11:50.947Z,14.06
2023-05-09T22:17:09.503Z,14.06
2023-05-09T22:22:28.078Z,13.94
2023-05-09T22:27:46.689Z,14
2023-05-09T22:33:05.402Z,14
2023-05-09T22:38:23.989Z,13.88
2023-05-09T22:43:42.802Z,13.81
2023-05-09T22:49:03.823Z,13.88
2023-05-09T22:54:22.491Z,13.75
2023-05-09T22:59:41.172Z,13.81
2023-05-09T23:04:59.847Z,13.88
2023-05-09T23:10:18.692Z,13.75
2023-05-09T23:15:36.783Z,13.75
2023-05-09T23:20:55.022Z,13.75
2023-05-09T23:26:15.147Z,13.62
2023-05-09T23:31:33.880Z,13.69
2023-05-09T23:36:52.480Z,13.56
2023-05-09T23:42:10.997Z,13.5
2023-05-09T23:47:29.587Z,13.38
2023-05-09T23:52:48.293Z,13.38
2023-05-09T23:58:06.559Z,13.38
